Time;durP1;ratioP1;P1;durP2;ratioP2;P2;SDS_P1;SDS_P2;PMS_P1;PMS_P2;Temp;Humidity;BMP_temperature;BMP_pressure;BME280_temperature;BME280_humidity;BME280_pressure;Samples;Min_cycle;Max_cycle;Signal;HPM_P1;HPM_P2
2023/03/29 06:03:26;;;;;;;;;8.75;4.50;;;;;17.46;44.61;101334.78;5108093;27;45686;-88
2023/03/29 06:05:57;;;;;;;;;5.00;3.75;;;;;18.12;45.40;101334.34;5096178;27;45847;-78
2023/03/29 06:08:24;;;;;;;;;5.25;3.50;;;;;18.99;45.97;101321.31;5116908;27;45452;-80
2023/03/29 06:10:50;;;;;;;;;4.00;4.00;;;;;19.93;45.64;101319.09;5089374;27;45618;-74
2023/03/29 06:13:16;;;;;;;;;3.00;3.00;;;;;20.75;45.37;101312.06;5098139;27;46426;-74
2023/03/29 06:15:41;;;;;;;;;5.25;3.00;;;;;21.53;45.05;101326.78;5106532;27;45458;-75
2023/03/29 06:18:06;;;;;;;;;3.75;3.75;;;;;22.18;44.20;101313.66;5106759;27;45552;-75
2023/03/29 06:20:32;;;;;;;;;5.25;4.75;;;;;22.73;44.12;101322.94;5106071;27;45434;-74
2023/03/29 06:22:57;;;;;;;;;3.50;3.50;;;;;23.19;43.76;101317.56;5105151;27;46362;-75
2023/03/29 06:25:23;;;;;;;;;3.00;2.00;;;;;23.60;43.03;101322.56;5110478;27;45524;-74
2023/03/29 06:27:50;;;;;;;;;4.00;4.00;;;;;23.98;42.76;101322.38;5100756;27;45511;-76
2023/03/29 06:30:17;;;;;;;;;4.33;4.00;;;;;24.31;42.50;101322.63;5110310;27;45584;-77
2023/03/29 06:32:43;;;;;;;;;3.00;3.00;;;;;24.58;42.01;101315.34;5105849;27;46585;-76
2023/03/29 06:35:09;;;;;;;;;4.00;4.00;;;;;24.84;41.61;101310.88;5105360;27;45696;-77
2023/03/29 06:37:34;;;;;;;;;2.00;2.00;;;;;25.08;41.41;101311.97;5104365;27;45498;-75
2023/03/29 06:40:00;;;;;;;;;2.00;2.00;;;;;25.25;40.93;101302.88;5102648;27;45617;-75
2023/03/29 06:42:26;;;;;;;;;2.00;2.00;;;;;25.48;41.15;101314.94;5102015;27;47815;-78
2023/03/29 06:44:52;;;;;;;;;3.00;3.00;;;;;25.64;40.30;101314.16;5102800;27;46193;-74
2023/03/29 06:47:17;;;;;;;;;3.00;3.00;;;;;25.79;40.55;101315.16;5108501;27;45346;-74
2023/03/29 06:49:43;;;;;;;;;4.00;3.33;;;;;25.92;39.74;101317.38;5106230;27;45580;-72
2023/03/29 06:52:09;;;;;;;;;2.00;2.00;;;;;26.09;40.22;101316.50;5101949;27;45469;-73
2023/03/29 06:54:34;;;;;;;;;2.00;2.00;;;;;26.23;39.58;101315.81;5110140;27;45433;-74
2023/03/29 06:57:00;;;;;;;;;3.00;3.00;;;;;26.35;39.83;101321.75;5108780;27;45703;-75
2023/03/29 06:59:26;;;;;;;;;6.67;2.00;;;;;26.46;39.73;101330.56;5107507;27;45360;-77
2023/03/29 07:01:54;;;;;;;;;2.33;2.33;;;;;26.53;39.40;101326.16;5108484;27;46158;-80
2023/03/29 07:04:22;;;;;;;;;3.00;3.00;;;;;26.64;39.25;101324.94;5104223;27;45719;-77
2023/03/29 07:06:57;;;;;;;;;3.00;3.00;;;;;26.72;39.15;101322.16;5103377;27;45553;-77
2023/03/29 07:09:25;;;;;;;;;3.00;3.00;;;;;26.80;39.02;101322.13;5097133;27;45362;-77
2023/03/29 07:11:50;;;;;;;;;3.00;3.00;;;;;26.86;38.54;101317.00;5095686;27;46358;-73
2023/03/29 07:14:16;;;;;;;;;2.33;2.33;;;;;26.86;37.76;101326.03;5091570;27;45385;-77
2023/03/29 07:16:42;;;;;;;;;3.00;3.00;;;;;26.85;37.64;101327.03;5097099;27;45520;-78
2023/03/29 07:19:08;;;;;;;;;3.00;3.00;;;;;26.85;38.21;101329.75;5089774;27;45501;-75
2023/03/29 07:21:33;;;;;;;;;3.00;3.00;;;;;26.80;37.54;101333.03;5089105;27;46366;-76
2023/03/29 07:23:59;;;;;;;;;4.33;3.00;;;;;26.84;37.43;101336.22;5093233;27;49452;-84
2023/03/29 07:26:24;;;;;;;;;2.00;2.00;;;;;26.85;37.90;101329.75;5095993;27;45529;-85
2023/03/29 07:28:50;;;;;;;;;3.67;3.67;;;;;26.91;37.61;101334.50;5090271;27;45666;-77
2023/03/29 07:31:16;;;;;;;;;2.00;2.00;;;;;26.92;37.41;101322.59;5088503;27;46052;-81
2023/03/29 07:33:43;;;;;;;;;4.33;3.00;;;;;27.04;36.96;101335.81;5093466;27;45852;-80
2023/03/29 07:36:09;;;;;;;;;2.00;2.00;;;;;27.10;37.00;101337.88;5086835;27;45389;-78
2023/03/29 07:38:35;;;;;;;;;3.00;3.00;;;;;27.14;36.93;101344.63;5085017;27;45569;-78
2023/03/29 07:41:03;;;;;;;;;2.00;2.00;;;;;27.19;36.87;101346.81;5095857;27;46388;-78
2023/03/29 07:43:29;;;;;;;;;3.00;3.00;;;;;27.21;37.23;101336.59;5094211;27;45474;-78
2023/03/29 07:45:54;;;;;;;;;4.67;3.00;;;;;27.21;37.10;101326.53;5087411;27;45481;-78
2023/03/29 07:48:21;;;;;;;;;4.33;2.00;;;;;27.30;36.96;101330.06;5094440;27;45492;-77
2023/03/29 07:50:46;;;;;;;;;4.00;4.00;;;;;27.33;36.32;101328.84;5085807;27;46039;-80
2023/03/29 07:53:11;;;;;;;;;2.67;2.67;;;;;27.37;37.13;101327.47;5092375;27;45453;-77
2023/03/29 07:55:45;;;;;;;;;4.00;2.00;;;;;27.40;36.81;101332.56;5094008;27;45465;-77
2023/03/29 07:58:11;;;;;;;;;2.00;2.00;;;;;27.44;36.72;101333.91;5094358;27;45567;-77
2023/03/29 08:00:36;;;;;;;;;5.67;3.00;;;;;27.46;36.50;101337.28;5085792;27;45646;-78
2023/03/29 08:03:02;;;;;;;;;4.67;4.67;;;;;27.47;36.22;101330.78;5088792;27;45415;-77
2023/03/29 08:05:28;;;;;;;;;4.33;2.00;;;;;27.49;36.62;101342.38;5092535;27;45596;-78
2023/03/29 08:07:53;;;;;;;;;2.33;2.33;;;;;27.54;36.40;101343.72;5093000;27;45559;-79
2023/03/29 08:10:20;;;;;;;;;2.33;2.33;;;;;27.56;35.82;101331.59;5092595;27;45658;-78
2023/03/29 08:12:47;;;;;;;;;2.00;2.00;;;;;27.59;35.90;101338.56;5083832;27;45441;-81
2023/03/29 08:15:13;;;;;;;;;2.00;2.00;;;;;27.60;35.62;101338.44;5094905;27;45466;-78
2023/03/29 08:17:40;;;;;;;;;3.00;3.00;;;;;27.66;36.41;101344.19;5091436;27;45497;-76
2023/03/29 08:20:08;;;;;;;;;2.00;2.00;;;;;27.70;36.02;101338.16;5082780;27;47060;-74
2023/03/29 08:22:34;;;;;;;;;2.67;2.33;;;;;27.73;35.63;101334.22;5092832;27;45505;-86
2023/03/29 08:25:00;;;;;;;;;3.00;3.00;;;;;27.76;35.76;101336.59;5078072;27;45576;-81
2023/03/29 08:27:26;;;;;;;;;3.00;1.67;;;;;27.80;35.29;101343.38;5090229;27;45482;-76
2023/03/29 08:29:51;;;;;;;;;2.00;2.00;;;;;27.81;35.38;101341.50;5093981;27;46037;-92
2023/03/29 08:32:16;;;;;;;;;2.00;2.00;;;;;27.82;35.98;101337.72;5095809;27;45441;-88
2023/03/29 08:34:42;;;;;;;;;2.00;2.00;;;;;27.87;35.32;101341.59;5094339;27;45483;-82
2023/03/29 08:37:08;;;;;;;;;2.00;2.00;;;;;27.91;35.37;101333.06;5086542;27;45573;-77
2023/03/29 08:39:34;;;;;;;;;3.33;3.33;;;;;27.94;35.87;101336.25;5089903;27;46098;-78
2023/03/29 08:42:18;;;;;;;;;2.00;2.00;;;;;27.98;35.78;101339.47;5070023;27;45672;-78
2023/03/29 08:44:54;;;;;;;;;2.00;2.00;;;;;28.00;35.02;101334.69;5092918;27;46122;-85
2023/03/29 08:47:45;;;;;;;;;4.00;4.00;;;;;28.03;35.19;101337.03;5105370;27;45493;-77
2023/03/29 08:50:12;;;;;;;;;2.00;2.00;;;;;28.04;35.36;101336.03;5100388;27;46206;-83
2023/03/29 08:52:44;;;;;;;;;2.33;2.33;;;;;28.05;34.95;101325.94;5094557;27;45505;-85
2023/03/29 08:55:31;;;;;;;;;0.33;0.00;;;;;28.11;35.09;101325.19;5098951;27;45622;-84
2023/03/29 08:58:01;;;;;;;;;2.67;2.67;;;;;28.12;34.94;101324.19;5094538;27;45442;-81
2023/03/29 09:00:41;;;;;;;;;3.00;3.00;;;;;28.17;35.13;101332.66;5093644;27;47009;-82
2023/03/29 09:03:28;;;;;;;;;3.00;3.00;;;;;28.20;35.46;101334.16;5092418;27;45470;-81
2023/03/29 09:06:01;;;;;;;;;1.67;1.67;;;;;28.21;35.47;101323.06;5093503;27;45399;-82
2023/03/29 09:08:27;;;;;;;;;2.33;2.00;;;;;28.23;35.37;101323.72;5092286;27;45915;-82
2023/03/29 09:11:10;;;;;;;;;1.33;1.33;;;;;28.25;35.02;101324.38;5094235;27;46341;-86
2023/03/29 09:13:57;;;;;;;;;2.00;2.00;;;;;28.26;34.65;101323.38;5073814;27;45347;-83
2023/03/29 09:16:45;;;;;;;;;1.67;1.67;;;;;28.28;34.62;101324.03;5075638;27;45720;-79
2023/03/29 09:19:19;;;;;;;;;4.00;3.00;;;;;28.31;35.15;101325.53;5080288;27;45508;-77
2023/03/29 09:21:57;;;;;;;;;3.33;3.33;;;;;28.34;34.65;101324.31;5076162;27;46221;-75
2023/03/29 09:25:13;;;;;;;;;1.00;1.00;;;;;28.31;34.24;101322.81;5087031;27;45500;-76
2023/03/29 09:27:47;;;;;;;;;6.00;4.00;;;;;28.23;34.78;101317.38;5067870;28;45408;-84
2023/03/29 09:30:25;;;;;;;;;3.33;2.00;;;;;28.20;34.45;101318.63;5070740;28;45859;-80
2023/03/29 09:33:02;;;;;;;;;1.33;1.33;;;;;28.21;34.63;101320.34;5069566;28;46475;-81
2023/03/29 09:35:37;;;;;;;;;4.00;4.00;;;;;28.25;34.04;101309.91;5069113;27;45739;-82
2023/03/29 09:38:08;;;;;;;;;2.00;2.00;;;;;28.28;34.03;101314.97;5071347;28;45506;-80
2023/03/29 09:40:40;;;;;;;;;3.00;3.00;;;;;28.28;34.16;101301.31;5071101;28;45325;-84
2023/03/29 09:43:09;;;;;;;;;3.00;3.00;;;;;28.30;34.19;101296.53;5057202;28;47313;-89
2023/03/29 09:45:37;;;;;;;;;2.67;2.67;;;;;28.36;34.31;101298.50;5056068;28;47334;-89
2023/03/29 09:48:14;;;;;;;;;1.67;1.67;;;;;28.39;34.04;101303.63;5029946;28;45585;-88
2023/03/29 09:50:42;;;;;;;;;2.33;2.33;;;;;28.41;33.95;101292.50;5076121;27;45528;-79
2023/03/29 09:53:09;;;;;;;;;4.00;2.00;;;;;28.44;34.23;101292.13;5071962;27;45450;-79
2023/03/29 09:55:37;;;;;;;;;3.67;3.67;;;;;28.45;33.85;101291.09;5074067;27;45512;-78
2023/03/29 09:58:16;;;;;;;;;4.00;2.00;;;;;28.49;34.03;101283.38;5071401;28;45492;-84
2023/03/29 10:00:43;;;;;;;;;5.00;2.00;;;;;28.47;33.80;101280.81;5091825;27;45554;-93
2023/03/29 10:03:16;;;;;;;;;3.00;3.00;;;;;28.45;33.91;101269.25;5092627;27;46030;-81
2023/03/29 10:05:45;;;;;;;;;2.00;2.00;;;;;28.41;34.08;101290.59;5096221;27;45465;-81
2023/03/29 10:08:37;;;;;;;;;2.33;2.33;;;;;28.43;33.08;101284.97;5085525;27;45999;-87
2023/03/29 10:11:08;;;;;;;;;1.33;1.33;;;;;28.45;33.83;101279.31;5091962;27;45642;-86
2023/03/29 10:13:42;;;;;;;;;0.33;0.33;;;;;28.48;33.26;101281.69;5092290;27;45581;-89
2023/03/29 10:16:18;;;;;;;;;2.00;2.00;;;;;28.50;33.52;101275.00;5093102;27;45550;-87
2023/03/29 10:18:43;;;;;;;;;2.00;2.00;;;;;28.53;33.76;101265.56;5091271;27;45544;-86
2023/03/29 10:21:15;;;;;;;;;2.00;2.00;;;;;28.58;33.30;101270.44;5093005;27;45441;-84
2023/03/29 10:23:41;;;;;;;;;2.00;2.00;;;;;28.58;33.32;101257.66;5094144;27;45374;-86
2023/03/29 10:26:16;;;;;;;;;2.00;2.00;;;;;28.66;33.70;101260.25;5092724;27;45423;-85
2023/03/29 10:28:41;;;;;;;;;2.00;2.00;;;;;28.69;33.58;101264.50;5093132;27;45536;-85
2023/03/29 10:31:17;;;;;;;;;2.67;1.00;;;;;28.73;33.43;101264.97;5091874;27;45474;-82
2023/03/29 10:33:42;;;;;;;;;4.00;2.00;;;;;28.73;33.09;101251.31;5076537;27;46027;-79
2023/03/29 10:36:12;;;;;;;;;2.00;2.00;;;;;28.73;33.22;101254.88;5075495;27;45619;-79
2023/03/29 10:38:38;;;;;;;;;2.00;1.00;;;;;28.76;33.22;101251.78;5084903;27;45525;-79
2023/03/29 10:41:10;;;;;;;;;1.33;1.33;;;;;28.76;33.32;101261.84;5093183;27;45692;-79
2023/03/29 10:43:48;;;;;;;;;3.00;2.00;;;;;28.76;33.24;101251.78;5089715;27;47071;-79
2023/03/29 10:46:29;;;;;;;;;3.00;3.00;;;;;28.74;33.46;101250.28;5091679;27;45860;-79
2023/03/29 10:48:57;;;;;;;;;2.00;2.00;;;;;28.72;33.13;101255.09;5092288;27;45432;-79
2023/03/29 10:51:26;;;;;;;;;1.67;1.67;;;;;28.73;33.01;101249.41;5087208;27;46262;-79
2023/03/29 10:53:52;;;;;;;;;2.00;2.00;;;;;28.73;32.90;101241.22;5086886;27;45617;-79
2023/03/29 10:56:38;;;;;;;;;2.67;2.67;;;;;28.73;33.37;101238.50;5095847;27;46086;-78
2023/03/29 10:59:22;;;;;;;;;3.67;2.00;;;;;28.73;32.55;101224.00;5093525;27;45499;-79
2023/03/29 11:01:50;;;;;;;;;2.00;2.00;;;;;28.72;33.00;101220.41;5092952;27;45802;-80
2023/03/29 11:04:16;;;;;;;;;1.33;1.33;;;;;28.72;32.54;101223.16;5092018;27;46752;-78
2023/03/29 11:07:00;;;;;;;;;2.00;2.00;;;;;28.73;33.26;101224.00;5083309;27;46775;-79
2023/03/29 11:09:38;;;;;;;;;3.00;1.67;;;;;28.70;32.63;101203.41;5079947;27;45592;-79
2023/03/29 11:12:23;;;;;;;;;1.00;1.00;;;;;28.76;32.51;101215.41;5087319;27;45465;-79
2023/03/29 11:14:57;;;;;;;;;2.00;2.00;;;;;28.76;32.88;101209.94;5084001;27;46213;-78
2023/03/29 11:17:42;;;;;;;;;2.00;2.00;;;;;28.74;32.48;101201.13;5088789;27;45478;-79
2023/03/29 11:20:36;;;;;;;;;1.00;1.00;;;;;28.76;32.58;101218.16;5085036;27;45744;-79
2023/03/29 11:23:16;;;;;;;;;2.00;2.00;;;;;28.75;32.63;101206.38;5085149;27;45570;-79
2023/03/29 11:25:57;;;;;;;;;2.00;1.67;;;;;28.74;32.09;101196.50;5084746;27;45722;-79
2023/03/29 11:28:48;;;;;;;;;2.00;2.00;;;;;28.72;32.74;101200.47;5085825;27;45574;-79
2023/03/29 11:31:16;;;;;;;;;2.00;2.00;;;;;28.71;31.99;101199.63;5083850;27;45719;-79
2023/03/29 11:34:05;;;;;;;;;1.33;1.00;;;;;28.66;32.84;101193.88;5082969;27;45626;-79
2023/03/29 11:36:40;;;;;;;;;1.00;1.00;;;;;28.62;32.65;101195.31;5088192;27;46578;-80
2023/03/29 11:39:14;;;;;;;;;1.67;1.67;;;;;28.59;32.63;101191.06;5085531;27;45438;-79
2023/03/29 11:41:45;;;;;;;;;1.67;1.33;;;;;28.59;32.41;101188.34;5092183;27;45602;-79
2023/03/29 11:44:26;;;;;;;;;1.00;1.00;;;;;28.58;32.11;101192.13;5089085;27;46252;-79
2023/03/29 11:47:00;;;;;;;;;0.67;0.67;;;;;28.57;32.53;101193.13;5082988;27;48123;-79
2023/03/29 11:49:31;;;;;;;;;1.00;1.00;;;;;28.52;31.95;101179.22;5092049;27;45502;-85
2023/03/29 11:52:07;;;;;;;;;1.67;1.00;;;;;28.53;32.55;101175.47;5088082;27;45641;-86
2023/03/29 11:54:43;;;;;;;;;0.33;0.33;;;;;28.55;31.99;101176.13;5088575;27;45737;-86
2023/03/29 11:57:27;;;;;;;;;1.33;1.33;;;;;28.59;31.86;101160.19;5091065;27;45556;-77
2023/03/29 12:00:20;;;;;;;;;1.00;1.00;;;;;28.63;32.04;101156.03;5092242;27;45381;-81
2023/03/29 12:02:54;;;;;;;;;3.00;2.00;;;;;28.65;32.09;101143.06;5091881;27;45467;-79
2023/03/29 12:05:26;;;;;;;;;1.67;1.67;;;;;28.66;32.29;101137.38;5090602;27;45412;-89
2023/03/29 12:08:15;;;;;;;;;1.33;1.33;;;;;28.69;31.88;101138.88;5092446;27;46563;-85
2023/03/29 12:10:48;;;;;;;;;2.00;2.00;;;;;28.72;32.57;101134.94;5094393;27;45541;-83
2023/03/29 12:13:13;;;;;;;;;1.67;1.67;;;;;28.75;31.81;101124.47;5092244;27;45577;-83
2023/03/29 12:15:49;;;;;;;;;3.00;1.67;;;;;28.76;32.08;101117.94;5093564;27;45551;-83
2023/03/29 12:18:21;;;;;;;;;3.00;2.00;;;;;28.82;32.51;101116.31;5082658;27;46586;-83
2023/03/29 12:21:00;;;;;;;;;1.00;1.00;;;;;28.82;32.06;101118.19;5086185;27;45451;-86
2023/03/29 12:23:29;;;;;;;;;2.00;2.00;;;;;28.88;32.28;101110.09;5093793;27;45588;-86
2023/03/29 12:26:04;;;;;;;;;1.00;1.00;;;;;28.92;32.42;101108.69;5094579;27;45643;-84
2023/03/29 12:28:42;;;;;;;;;3.00;3.00;;;;;28.93;31.93;101099.44;5090562;27;49060;-90
2023/03/29 12:31:35;;;;;;;;;2.00;2.00;;;;;28.95;31.86;101099.25;5091684;27;46268;-79
2023/03/29 12:34:19;;;;;;;;;7.00;4.00;;;;;28.92;32.01;101096.88;5086778;27;45858;-78
2023/03/29 12:36:59;;;;;;;;;3.67;3.67;;;;;28.87;31.50;101085.69;5093445;27;45757;-78
2023/03/29 12:39:27;;;;;;;;;3.00;2.00;;;;;28.79;31.72;101076.59;5093906;27;45529;-79
2023/03/29 12:41:53;;;;;;;;;3.33;3.33;;;;;28.72;31.63;101078.41;5093131;27;45490;-79
2023/03/29 12:44:22;;;;;;;;;2.67;2.67;;;;;28.69;31.91;101080.69;5092099;27;45372;-80
2023/03/29 12:46:54;;;;;;;;;2.67;2.00;;;;;28.63;31.53;101080.44;5094690;27;45544;-80
2023/03/29 12:49:36;;;;;;;;;3.67;3.67;;;;;28.57;31.56;101074.91;5094024;27;46200;-81
2023/03/29 12:52:25;;;;;;;;;3.67;2.00;;;;;28.50;32.08;101074.84;5094581;27;45499;-78
2023/03/29 12:54:57;;;;;;;;;2.00;2.00;;;;;28.45;31.66;101064.50;5094577;27;45504;-80
2023/03/29 12:57:39;;;;;;;;;2.00;2.00;;;;;28.44;31.90;101062.78;5094313;27;45526;-80
2023/03/29 13:00:26;;;;;;;;;1.00;1.00;;;;;28.38;31.21;101058.13;5093024;27;47124;-79
2023/03/29 13:03:03;;;;;;;;;3.67;2.33;;;;;28.36;31.58;101060.22;5078064;27;47448;-79
2023/03/29 13:05:38;;;;;;;;;3.00;3.00;;;;;28.31;31.63;101058.03;5092005;27;45752;-78
2023/03/29 13:08:27;;;;;;;;;2.67;1.67;;;;;28.30;31.84;101053.63;5087135;27;45302;-79
2023/03/29 13:10:54;;;;;;;;;3.00;3.00;;;;;28.30;31.90;101060.97;5085576;27;46687;-78
2023/03/29 13:13:26;;;;;;;;;4.33;3.00;;;;;28.30;31.81;101055.50;5088026;27;45861;-77
2023/03/29 13:15:52;;;;;;;;;2.67;2.67;;;;;28.29;31.64;101054.69;5092371;27;45548;-78
2023/03/29 13:18:35;;;;;;;;;4.00;2.67;;;;;28.32;31.85;101048.81;5085149;27;45568;-78
2023/03/29 13:21:25;;;;;;;;;2.67;2.67;;;;;28.34;31.27;101046.75;5104278;27;46026;-78
2023/03/29 13:24:14;;;;;;;;;3.00;2.00;;;;;28.31;31.60;101029.94;5084918;27;45442;-78
2023/03/29 13:27:01;;;;;;;;;2.00;2.00;;;;;28.36;31.08;101027.47;5086974;27;45344;-78
2023/03/29 13:30:14;;;;;;;;;3.00;3.00;;;;;28.39;31.01;101030.63;5093170;27;45387;-77
2023/03/29 13:32:49;;;;;;;;;3.00;3.00;;;;;28.40;31.22;101024.13;5086774;27;45662;-79
2023/03/29 13:35:43;;;;;;;;;2.00;2.00;;;;;28.46;31.83;101027.13;5093872;27;45548;-87
2023/03/29 13:38:20;;;;;;;;;1.33;1.33;;;;;28.39;31.22;101010.66;5086247;27;45666;-84
2023/03/29 13:40:48;;;;;;;;;3.00;1.67;;;;;28.48;31.19;101006.78;5091350;27;45536;-82
2023/03/29 13:43:17;;;;;;;;;2.67;2.67;;;;;28.49;31.62;101004.91;5092747;27;45553;-80
2023/03/29 13:45:44;;;;;;;;;1.00;1.00;;;;;28.50;31.54;101006.59;5091955;27;45594;-81
2023/03/29 13:48:33;;;;;;;;;2.00;2.00;;;;;28.49;31.58;100997.53;5092801;27;45504;-85
2023/03/29 13:51:17;;;;;;;;;2.00;2.00;;;;;28.49;31.36;101004.91;5092530;27;45435;-89
2023/03/29 13:53:54;;;;;;;;;2.00;2.00;;;;;28.49;31.64;100997.53;5091860;27;46333;-84
2023/03/29 13:56:51;;;;;;;;;3.33;2.00;;;;;28.48;31.13;100997.75;5092248;27;45555;-89
2023/03/29 13:59:30;;;;;;;;;2.00;2.00;;;;;28.49;31.73;100992.06;5092270;27;45489;-90
2023/03/29 14:01:59;;;;;;;;;2.67;1.00;;;;;28.44;31.46;100972.72;5090570;27;45350;-93
2023/03/29 14:04:47;;;;;;;;;2.00;2.00;;;;;28.50;30.88;100982.00;5094062;27;45402;-85
2023/03/29 14:07:14;;;;;;;;;3.00;1.33;;;;;28.49;31.28;100974.88;5087386;27;45832;-74
2023/03/29 14:09:43;;;;;;;;;3.00;1.67;;;;;28.49;30.70;100972.97;5092558;27;45266;-74
2023/03/29 14:12:12;;;;;;;;;2.67;2.67;;;;;28.51;30.68;100964.59;5082835;27;45462;-79
2023/03/29 14:14:41;;;;;;;;;0.33;0.33;;;;;28.49;31.06;100963.94;5087318;27;46401;-77
2023/03/29 14:17:06;;;;;;;;;1.33;1.00;;;;;28.46;31.17;100962.47;5086079;27;45548;-87
2023/03/29 14:19:35;;;;;;;;;1.00;1.00;;;;;28.48;30.96;100974.00;5092731;27;45350;-89
2023/03/29 14:22:06;;;;;;;;;1.67;1.67;;;;;28.51;31.18;100975.50;5091748;27;45617;-81
2023/03/29 14:24:39;;;;;;;;;1.00;1.00;;;;;28.54;31.22;100961.47;5092458;27;47347;-86
2023/03/29 14:27:08;;;;;;;;;2.00;1.00;;;;;28.58;31.01;100953.72;5090401;27;45397;-80
2023/03/29 14:29:35;;;;;;;;;2.67;1.00;;;;;28.64;31.63;100944.72;5095532;27;45454;-88
2023/03/29 14:32:28;;;;;;;;;2.00;2.00;;;;;28.68;31.22;100937.81;5096679;27;45604;-89
2023/03/29 14:34:53;;;;;;;;;4.00;2.00;;;;;28.71;31.18;100922.94;5083513;27;45676;-78
2023/03/29 14:37:27;;;;;;;;;2.00;2.00;;;;;28.77;31.41;100927.63;5092809;27;47274;-79
2023/03/29 14:39:53;;;;;;;;;1.00;1.00;;;;;28.77;31.05;100920.25;5089817;27;45512;-80
2023/03/29 14:42:25;;;;;;;;;1.00;1.00;;;;;28.79;31.24;100920.06;5091044;27;45402;-81
2023/03/29 14:44:57;;;;;;;;;0.33;0.33;;;;;28.74;30.78;100930.75;5088093;27;46629;-81
2023/03/29 14:47:28;;;;;;;;;1.33;1.33;;;;;28.65;30.46;100919.97;5095446;27;45536;-81
2023/03/29 14:49:55;;;;;;;;;1.00;1.00;;;;;28.52;30.89;100909.78;5093321;27;45584;-80
2023/03/29 14:52:22;;;;;;;;;0.33;0.33;;;;;28.48;30.39;100904.94;5093242;27;45528;-79
2023/03/29 14:54:51;;;;;;;;;3.00;2.00;;;;;28.40;31.12;100908.63;5089996;27;46212;-78
2023/03/29 14:57:22;;;;;;;;;1.00;1.00;;;;;28.35;30.74;100902.91;5088894;27;45451;-78
2023/03/29 14:59:55;;;;;;;;;1.00;1.00;;;;;28.27;30.52;100901.19;5096028;27;45375;-79
2023/03/29 15:02:28;;;;;;;;;1.00;1.00;;;;;28.22;30.66;100893.56;5076291;27;45495;-78
2023/03/29 15:05:34;;;;;;;;;1.00;1.00;;;;;28.14;30.85;100883.66;5093705;27;45476;-80
2023/03/29 15:08:01;;;;;;;;;1.00;1.00;;;;;28.13;30.57;100881.94;5093989;27;45476;-77
2023/03/29 15:10:30;;;;;;;;;2.00;1.00;;;;;28.07;31.04;100869.09;5096926;27;45523;-80
2023/03/29 15:12:56;;;;;;;;;3.00;2.00;;;;;28.10;30.94;100884.22;5087015;27;46520;-77
2023/03/29 15:15:24;;;;;;;;;2.00;2.00;;;;;28.10;30.42;100874.16;5088834;27;46264;-76
2023/03/29 15:17:50;;;;;;;;;1.00;1.00;;;;;28.10;30.50;100868.69;5088776;27;45461;-77
2023/03/29 15:20:28;;;;;;;;;2.00;1.00;;;;;28.11;30.46;100866.81;5078681;27;45483;-78
2023/03/29 15:23:07;;;;;;;;;4.00;2.00;;;;;28.13;30.56;100851.09;5079295;27;45483;-85
2023/03/29 15:25:36;;;;;;;;;1.00;1.00;;;;;28.11;30.98;100845.81;5095002;27;46232;-84
2023/03/29 15:28:01;;;;;;;;;2.67;2.67;;;;;28.15;30.67;100849.84;5092850;27;45456;-79
2023/03/29 15:30:33;;;;;;;;;1.00;1.00;;;;;28.13;30.61;100845.63;5095446;27;45543;-78
2023/03/29 15:33:13;;;;;;;;;1.67;1.67;;;;;28.15;30.92;100843.53;5095058;27;45498;-79
2023/03/29 15:35:39;;;;;;;;;2.00;2.00;;;;;28.10;30.62;100835.97;5092401;27;47463;-79
2023/03/29 15:38:05;;;;;;;;;1.67;1.67;;;;;28.10;30.70;100830.50;5090050;27;45666;-79
2023/03/29 15:40:31;;;;;;;;;3.00;3.00;;;;;28.10;30.56;100829.66;5090829;27;45430;-82
2023/03/29 15:42:57;;;;;;;;;2.33;2.33;;;;;28.10;30.46;100819.59;5090503;27;45487;-78
2023/03/29 15:45:24;;;;;;;;;2.00;2.00;;;;;28.10;31.08;100822.31;5092780;27;45613;-87
2023/03/29 15:47:50;;;;;;;;;3.00;3.00;;;;;28.14;30.65;100825.50;5094544;27;45453;-84
2023/03/29 15:50:15;;;;;;;;;3.00;3.00;;;;;28.13;31.08;100829.25;5092139;27;45467;-82
2023/03/29 15:52:41;;;;;;;;;3.00;2.00;;;;;28.16;30.48;100815.25;5094335;27;45472;-81
2023/03/29 15:55:07;;;;;;;;;2.33;2.33;;;;;28.15;30.38;100817.13;5095023;27;46098;-80
2023/03/29 15:57:34;;;;;;;;;3.00;1.00;;;;;28.18;30.87;100820.47;5090140;27;45722;-85
2023/03/29 16:00:00;;;;;;;;;4.00;4.00;;;;;28.19;31.01;100814.00;5087400;27;45509;-83
2023/03/29 16:02:26;;;;;;;;;1.33;1.33;;;;;28.18;30.59;100821.31;5087794;27;45548;-82
2023/03/29 16:04:52;;;;;;;;;4.00;1.33;;;;;28.20;30.62;100815.69;5092927;27;46309;-76
2023/03/29 16:07:18;;;;;;;;;1.00;1.00;;;;;28.20;30.40;100818.41;5094279;27;45408;-74
2023/03/29 16:09:47;;;;;;;;;2.00;2.00;;;;;28.22;31.03;100805.38;5086143;27;45504;-74
2023/03/29 16:12:15;;;;;;;;;2.33;2.00;;;;;28.24;30.79;100804.19;5088737;22;45487;-78
2023/03/29 16:14:40;;;;;;;;;2.33;2.00;;;;;28.25;30.74;100800.41;5051079;28;46579;-79
2023/03/29 16:17:05;;;;;;;;;4.00;2.00;;;;;28.28;30.57;100807.34;5050328;28;45454;-77
2023/03/29 16:19:32;;;;;;;;;2.67;2.67;;;;;28.28;30.32;100799.16;5054244;28;45412;-83
2023/03/29 16:21:59;;;;;;;;;3.00;2.67;;;;;28.26;30.79;100799.38;5053248;28;45498;-73
2023/03/29 16:24:28;;;;;;;;;3.00;3.00;;;;;28.26;30.70;100785.75;5051666;28;45518;-73
2023/03/29 16:26:55;;;;;;;;;3.00;3.00;;;;;28.30;30.75;100788.06;5053692;28;45466;-73
2023/03/29 16:29:20;;;;;;;;;2.00;2.00;;;;;28.32;30.43;100794.16;5052725;28;45443;-74
2023/03/29 16:31:47;;;;;;;;;2.33;2.33;;;;;28.34;30.64;100783.88;5052430;28;45376;-76
2023/03/29 16:34:15;;;;;;;;;2.33;2.33;;;;;28.37;30.81;100778.84;5051004;28;46498;-74
2023/03/29 16:36:40;;;;;;;;;2.00;2.00;;;;;28.43;31.01;100787.28;5053645;28;45456;-75
2023/03/29 16:39:06;;;;;;;;;4.33;3.00;;;;;28.46;30.75;100785.03;5052469;28;45541;-74
2023/03/29 16:41:31;;;;;;;;;2.00;2.00;;;;;28.52;30.27;100786.94;5052109;28;45590;-74
2023/03/29 16:43:58;;;;;;;;;2.00;2.00;;;;;28.54;30.32;100784.84;5050140;28;45659;-74
2023/03/29 16:46:25;;;;;;;;;2.67;2.67;;;;;28.57;30.76;100782.75;5047602;28;45391;-76
2023/03/29 16:48:52;;;;;;;;;2.67;1.67;;;;;28.58;30.27;100778.97;5052831;28;45522;-80
2023/03/29 16:51:18;;;;;;;;;2.00;2.00;;;;;28.60;31.02;100779.63;5052770;28;45600;-88
2023/03/29 16:53:43;;;;;;;;;2.33;2.33;;;;;28.62;30.73;100778.38;5052185;28;46218;-77
2023/03/29 16:56:09;;;;;;;;;2.67;2.67;;;;;28.65;30.31;100783.44;5050504;27;47652;-86
2023/03/29 16:58:37;;;;;;;;;3.67;3.67;;;;;28.68;31.16;100782.19;5052190;28;45414;-83
